sensor_id;sensor_type;location;lat;lon;timestamp;P1;durP1;ratioP1;P2;durP2;ratioP2
77111;SDS011;66064;50.226;14.344;2023-03-05T00:00:09;13.45;;;12.05;;
77111;SDS011;66064;50.226;14.344;2023-03-05T00:02:56;13.88;;;12.40;;
77111;SDS011;66064;50.226;14.344;2023-03-05T00:05:22;16.58;;;15.15;;
77111;SDS011;66064;50.226;14.344;2023-03-05T00:07:48;14.48;;;12.88;;
77111;SDS011;66064;50.226;14.344;2023-03-05T00:10:13;16.85;;;12.90;;
77111;SDS011;66064;50.226;14.344;2023-03-05T00:12:40;17.15;;;13.20;;
77111;SDS011;66064;50.226;14.344;2023-03-05T00:15:05;13.07;;;9.80;;
77111;SDS011;66064;50.226;14.344;2023-03-05T00:17:32;17.60;;;10.57;;
77111;SDS011;66064;50.226;14.344;2023-03-05T00:19:58;13.57;;;12.20;;
77111;SDS011;66064;50.226;14.344;2023-03-05T00:22:24;14.15;;;12.18;;
77111;SDS011;66064;50.226;14.344;2023-03-05T00:24:50;14.75;;;11.00;;
77111;SDS011;66064;50.226;14.344;2023-03-05T00:27:16;15.10;;;13.82;;
77111;SDS011;66064;50.226;14.344;2023-03-05T00:29:42;14.63;;;11.68;;
77111;SDS011;66064;50.226;14.344;2023-03-05T00:32:08;14.38;;;10.27;;
77111;SDS011;66064;50.226;14.344;2023-03-05T00:34:33;14.70;;;12.38;;
77111;SDS011;66064;50.226;14.344;2023-03-05T00:37:01;15.10;;;10.05;;
77111;SDS011;66064;50.226;14.344;2023-03-05T00:39:27;18.98;;;13.25;;
77111;SDS011;66064;50.226;14.344;2023-03-05T00:41:53;14.15;;;12.20;;
77111;SDS011;66064;50.226;14.344;2023-03-05T00:44:19;13.77;;;11.30;;
77111;SDS011;66064;50.226;14.344;2023-03-05T00:46:46;16.95;;;11.18;;
77111;SDS011;66064;50.226;14.344;2023-03-05T00:49:11;12.70;;;10.48;;
77111;SDS011;66064;50.226;14.344;2023-03-05T00:51:37;11.73;;;10.63;;
77111;SDS011;66064;50.226;14.344;2023-03-05T00:54:03;14.98;;;13.93;;
77111;SDS011;66064;50.226;14.344;2023-03-05T00:56:30;15.85;;;11.40;;
77111;SDS011;66064;50.226;14.344;2023-03-05T00:58:55;14.20;;;10.75;;
77111;SDS011;66064;50.226;14.344;2023-03-05T01:01:21;13.93;;;12.55;;
77111;SDS011;66064;50.226;14.344;2023-03-05T01:03:48;14.02;;;12.15;;
77111;SDS011;66064;50.226;14.344;2023-03-05T01:06:14;12.43;;;10.95;;
77111;SDS011;66064;50.226;14.344;2023-03-05T01:08:41;14.63;;;13.10;;
77111;SDS011;66064;50.226;14.344;2023-03-05T01:11:08;14.18;;;10.88;;
77111;SDS011;66064;50.226;14.344;2023-03-05T01:13:35;11.50;;;10.50;;
77111;SDS011;66064;50.226;14.344;2023-03-05T01:16:02;14.30;;;12.07;;
77111;SDS011;66064;50.226;14.344;2023-03-05T01:18:28;10.98;;;9.90;;
77111;SDS011;66064;50.226;14.344;2023-03-05T01:20:54;11.43;;;10.23;;
77111;SDS011;66064;50.226;14.344;2023-03-05T01:23:20;15.30;;;13.88;;
77111;SDS011;66064;50.226;14.344;2023-03-05T01:25:51;13.38;;;11.40;;
77111;SDS011;66064;50.226;14.344;2023-03-05T01:28:18;12.80;;;11.68;;
77111;SDS011;66064;50.226;14.344;2023-03-05T01:30:44;11.30;;;10.27;;
77111;SDS011;66064;50.226;14.344;2023-03-05T01:33:10;15.02;;;11.75;;
77111;SDS011;66064;50.226;14.344;2023-03-05T01:35:36;16.90;;;10.90;;
77111;SDS011;66064;50.226;14.344;2023-03-05T01:38:02;15.13;;;12.32;;
77111;SDS011;66064;50.226;14.344;2023-03-05T01:40:28;15.57;;;14.50;;
77111;SDS011;66064;50.226;14.344;2023-03-05T01:45:36;12.48;;;10.45;;
77111;SDS011;66064;50.226;14.344;2023-03-05T01:48:03;13.20;;;11.98;;
77111;SDS011;66064;50.226;14.344;2023-03-05T01:50:29;15.63;;;13.13;;
77111;SDS011;66064;50.226;14.344;2023-03-05T01:53:02;13.38;;;12.10;;
77111;SDS011;66064;50.226;14.344;2023-03-05T01:55:31;14.77;;;13.50;;
77111;SDS011;66064;50.226;14.344;2023-03-05T01:58:02;15.45;;;13.82;;
77111;SDS011;66064;50.226;14.344;2023-03-05T02:00:40;14.02;;;12.48;;
77111;SDS011;66064;50.226;14.344;2023-03-05T02:03:10;12.68;;;11.52;;
77111;SDS011;66064;50.226;14.344;2023-03-05T02:05:38;16.92;;;15.38;;
77111;SDS011;66064;50.226;14.344;2023-03-05T02:08:06;15.90;;;14.65;;
77111;SDS011;66064;50.226;14.344;2023-03-05T02:10:43;18.00;;;13.80;;
77111;SDS011;66064;50.226;14.344;2023-03-05T02:13:13;14.57;;;13.13;;
77111;SDS011;66064;50.226;14.344;2023-03-05T02:15:42;15.77;;;12.55;;
77111;SDS011;66064;50.226;14.344;2023-03-05T02:18:09;19.23;;;17.20;;
77111;SDS011;66064;50.226;14.344;2023-03-05T02:20:43;17.33;;;15.25;;
77111;SDS011;66064;50.226;14.344;2023-03-05T02:23:22;18.75;;;14.75;;
77111;SDS011;66064;50.226;14.344;2023-03-05T02:25:50;14.18;;;12.65;;
77111;SDS011;66064;50.226;14.344;2023-03-05T02:31:12;21.23;;;19.38;;
77111;SDS011;66064;50.226;14.344;2023-03-05T02:33:39;14.07;;;11.90;;
77111;SDS011;66064;50.226;14.344;2023-03-05T02:36:06;16.13;;;14.50;;
77111;SDS011;66064;50.226;14.344;2023-03-05T02:38:32;16.85;;;15.27;;
77111;SDS011;66064;50.226;14.344;2023-03-05T02:40:59;16.90;;;14.05;;
77111;SDS011;66064;50.226;14.344;2023-03-05T02:43:25;16.40;;;13.93;;
77111;SDS011;66064;50.226;14.344;2023-03-05T02:45:51;19.13;;;17.15;;
77111;SDS011;66064;50.226;14.344;2023-03-05T02:48:17;17.20;;;13.75;;
77111;SDS011;66064;50.226;14.344;2023-03-05T02:50:43;14.77;;;12.50;;
77111;SDS011;66064;50.226;14.344;2023-03-05T02:53:10;16.98;;;15.35;;
77111;SDS011;66064;50.226;14.344;2023-03-05T02:55:36;16.65;;;15.07;;
77111;SDS011;66064;50.226;14.344;2023-03-05T02:58:02;18.52;;;16.73;;
77111;SDS011;66064;50.226;14.344;2023-03-05T03:00:28;19.35;;;15.32;;
77111;SDS011;66064;50.226;14.344;2023-03-05T03:02:54;21.70;;;14.75;;
77111;SDS011;66064;50.226;14.344;2023-03-05T03:05:20;16.38;;;14.38;;
77111;SDS011;66064;50.226;14.344;2023-03-05T03:07:46;21.40;;;16.05;;
77111;SDS011;66064;50.226;14.344;2023-03-05T03:10:12;17.42;;;15.57;;
77111;SDS011;66064;50.226;14.344;2023-03-05T03:12:38;17.80;;;14.75;;
77111;SDS011;66064;50.226;14.344;2023-03-05T03:15:06;19.30;;;16.92;;
77111;SDS011;66064;50.226;14.344;2023-03-05T03:17:33;22.08;;;14.90;;
77111;SDS011;66064;50.226;14.344;2023-03-05T03:20:00;23.10;;;15.05;;
77111;SDS011;66064;50.226;14.344;2023-03-05T03:22:27;17.85;;;16.33;;
77111;SDS011;66064;50.226;14.344;2023-03-05T03:24:54;16.25;;;14.50;;
77111;SDS011;66064;50.226;14.344;2023-03-05T03:27:20;20.13;;;17.90;;
77111;SDS011;66064;50.226;14.344;2023-03-05T03:29:47;19.13;;;15.63;;
77111;SDS011;66064;50.226;14.344;2023-03-05T03:32:13;20.95;;;13.45;;
77111;SDS011;66064;50.226;14.344;2023-03-05T03:34:39;22.00;;;19.52;;
77111;SDS011;66064;50.226;14.344;2023-03-05T03:37:05;19.52;;;16.15;;
77111;SDS011;66064;50.226;14.344;2023-03-05T03:39:31;18.13;;;14.88;;
77111;SDS011;66064;50.226;14.344;2023-03-05T03:41:57;17.67;;;15.85;;
77111;SDS011;66064;50.226;14.344;2023-03-05T03:44:23;19.77;;;17.13;;
77111;SDS011;66064;50.226;14.344;2023-03-05T03:46:49;16.13;;;14.45;;
77111;SDS011;66064;50.226;14.344;2023-03-05T03:49:20;17.63;;;14.98;;
77111;SDS011;66064;50.226;14.344;2023-03-05T03:51:48;15.23;;;13.90;;
77111;SDS011;66064;50.226;14.344;2023-03-05T03:54:16;14.70;;;13.05;;
77111;SDS011;66064;50.226;14.344;2023-03-05T03:56:43;16.70;;;15.00;;
77111;SDS011;66064;50.226;14.344;2023-03-05T03:59:09;14.45;;;12.50;;
77111;SDS011;66064;50.226;14.344;2023-03-05T04:01:35;16.17;;;14.07;;
77111;SDS011;66064;50.226;14.344;2023-03-05T04:04:02;18.88;;;16.98;;
77111;SDS011;66064;50.226;14.344;2023-03-05T04:06:29;19.13;;;16.35;;
77111;SDS011;66064;50.226;14.344;2023-03-05T04:08:55;16.85;;;14.15;;
77111;SDS011;66064;50.226;14.344;2023-03-05T04:11:21;16.02;;;13.57;;
77111;SDS011;66064;50.226;14.344;2023-03-05T04:13:47;15.73;;;14.27;;
77111;SDS011;66064;50.226;14.344;2023-03-05T04:16:14;14.63;;;13.05;;
77111;SDS011;66064;50.226;14.344;2023-03-05T04:18:41;15.50;;;13.18;;
77111;SDS011;66064;50.226;14.344;2023-03-05T04:21:07;13.70;;;12.57;;
77111;SDS011;66064;50.226;14.344;2023-03-05T04:23:33;13.57;;;12.20;;
77111;SDS011;66064;50.226;14.344;2023-03-05T04:26:00;14.93;;;13.30;;
77111;SDS011;66064;50.226;14.344;2023-03-05T04:28:26;16.00;;;14.00;;
77111;SDS011;66064;50.226;14.344;2023-03-05T04:30:52;18.08;;;16.48;;
77111;SDS011;66064;50.226;14.344;2023-03-05T04:33:18;15.00;;;13.77;;
77111;SDS011;66064;50.226;14.344;2023-03-05T04:35:44;15.25;;;13.77;;
77111;SDS011;66064;50.226;14.344;2023-03-05T04:38:10;16.00;;;14.45;;
77111;SDS011;66064;50.226;14.344;2023-03-05T04:40:36;14.27;;;12.93;;
77111;SDS011;66064;50.226;14.344;2023-03-05T04:43:03;16.08;;;14.75;;
77111;SDS011;66064;50.226;14.344;2023-03-05T04:45:29;13.82;;;12.63;;
77111;SDS011;66064;50.226;14.344;2023-03-05T04:47:56;13.13;;;12.05;;
77111;SDS011;66064;50.226;14.344;2023-03-05T04:50:22;15.05;;;13.93;;
77111;SDS011;66064;50.226;14.344;2023-03-05T04:52:48;13.05;;;11.80;;
77111;SDS011;66064;50.226;14.344;2023-03-05T04:55:14;13.75;;;12.65;;
77111;SDS011;66064;50.226;14.344;2023-03-05T04:57:41;14.73;;;13.48;;
77111;SDS011;66064;50.226;14.344;2023-03-05T05:00:09;14.82;;;13.38;;
77111;SDS011;66064;50.226;14.344;2023-03-05T05:02:48;13.82;;;12.82;;
77111;SDS011;66064;50.226;14.344;2023-03-05T05:05:19;13.27;;;12.02;;
77111;SDS011;66064;50.226;14.344;2023-03-05T05:07:51;12.60;;;11.57;;
77111;SDS011;66064;50.226;14.344;2023-03-05T05:10:18;14.93;;;13.43;;
77111;SDS011;66064;50.226;14.344;2023-03-05T05:12:44;12.82;;;11.73;;
77111;SDS011;66064;50.226;14.344;2023-03-05T05:15:11;16.20;;;15.07;;
77111;SDS011;66064;50.226;14.344;2023-03-05T05:17:37;14.43;;;13.32;;
77111;SDS011;66064;50.226;14.344;2023-03-05T05:20:03;12.98;;;11.85;;
77111;SDS011;66064;50.226;14.344;2023-03-05T05:22:33;14.60;;;13.50;;
77111;SDS011;66064;50.226;14.344;2023-03-05T05:24:59;13.13;;;12.00;;
77111;SDS011;66064;50.226;14.344;2023-03-05T05:27:25;15.40;;;14.30;;
77111;SDS011;66064;50.226;14.344;2023-03-05T05:29:51;13.95;;;12.73;;
77111;SDS011;66064;50.226;14.344;2023-03-05T05:32:18;14.00;;;12.80;;
77111;SDS011;66064;50.226;14.344;2023-03-05T05:34:45;13.95;;;12.70;;
77111;SDS011;66064;50.226;14.344;2023-03-05T05:37:11;14.23;;;12.98;;
77111;SDS011;66064;50.226;14.344;2023-03-05T05:39:36;14.98;;;13.90;;
77111;SDS011;66064;50.226;14.344;2023-03-05T05:42:03;13.65;;;12.25;;
77111;SDS011;66064;50.226;14.344;2023-03-05T05:44:28;15.60;;;14.30;;
77111;SDS011;66064;50.226;14.344;2023-03-05T05:46:55;15.77;;;14.68;;
77111;SDS011;66064;50.226;14.344;2023-03-05T05:49:20;13.98;;;12.98;;
77111;SDS011;66064;50.226;14.344;2023-03-05T05:51:46;15.02;;;13.93;;
77111;SDS011;66064;50.226;14.344;2023-03-05T05:54:12;12.75;;;10.77;;
77111;SDS011;66064;50.226;14.344;2023-03-05T05:56:39;12.00;;;11.00;;
77111;SDS011;66064;50.226;14.344;2023-03-05T05:59:06;15.40;;;14.13;;
77111;SDS011;66064;50.226;14.344;2023-03-05T06:01:32;13.88;;;12.68;;
77111;SDS011;66064;50.226;14.344;2023-03-05T06:03:59;11.57;;;10.73;;
77111;SDS011;66064;50.226;14.344;2023-03-05T06:06:26;14.55;;;13.45;;
77111;SDS011;66064;50.226;14.344;2023-03-05T06:08:52;15.35;;;14.20;;
77111;SDS011;66064;50.226;14.344;2023-03-05T06:11:19;13.40;;;12.35;;
77111;SDS011;66064;50.226;14.344;2023-03-05T06:13:46;14.75;;;13.80;;
77111;SDS011;66064;50.226;14.344;2023-03-05T06:16:14;13.98;;;12.65;;
77111;SDS011;66064;50.226;14.344;2023-03-05T06:18:42;16.30;;;14.98;;
77111;SDS011;66064;50.226;14.344;2023-03-05T06:21:10;13.20;;;11.95;;
77111;SDS011;66064;50.226;14.344;2023-03-05T06:23:37;15.52;;;13.57;;
77111;SDS011;66064;50.226;14.344;2023-03-05T06:26:04;14.30;;;13.05;;
77111;SDS011;66064;50.226;14.344;2023-03-05T06:28:31;12.80;;;11.18;;
77111;SDS011;66064;50.226;14.344;2023-03-05T06:30:59;10.40;;;9.57;;
77111;SDS011;66064;50.226;14.344;2023-03-05T06:33:25;13.45;;;12.38;;
77111;SDS011;66064;50.226;14.344;2023-03-05T06:35:52;12.43;;;11.00;;
77111;SDS011;66064;50.226;14.344;2023-03-05T06:38:17;16.15;;;14.43;;
77111;SDS011;66064;50.226;14.344;2023-03-05T06:40:43;15.07;;;14.13;;
77111;SDS011;66064;50.226;14.344;2023-03-05T06:43:09;10.88;;;9.88;;
77111;SDS011;66064;50.226;14.344;2023-03-05T06:45:35;16.30;;;14.80;;
77111;SDS011;66064;50.226;14.344;2023-03-05T06:48:01;15.50;;;14.48;;
77111;SDS011;66064;50.226;14.344;2023-03-05T06:50:27;14.18;;;12.55;;
77111;SDS011;66064;50.226;14.344;2023-03-05T06:52:52;18.98;;;13.82;;
77111;SDS011;66064;50.226;14.344;2023-03-05T06:55:19;21.08;;;14.45;;
77111;SDS011;66064;50.226;14.344;2023-03-05T06:57:45;17.17;;;13.13;;
77111;SDS011;66064;50.226;14.344;2023-03-05T07:00:12;12.93;;;9.45;;
77111;SDS011;66064;50.226;14.344;2023-03-05T07:02:38;13.02;;;12.13;;
77111;SDS011;66064;50.226;14.344;2023-03-05T07:05:05;11.82;;;10.90;;
77111;SDS011;66064;50.226;14.344;2023-03-05T07:07:32;9.98;;;9.30;;
77111;SDS011;66064;50.226;14.344;2023-03-05T07:09:59;10.00;;;9.40;;
77111;SDS011;66064;50.226;14.344;2023-03-05T07:12:24;11.48;;;10.38;;
77111;SDS011;66064;50.226;14.344;2023-03-05T07:14:51;11.48;;;10.55;;
77111;SDS011;66064;50.226;14.344;2023-03-05T07:17:16;17.17;;;16.08;;
77111;SDS011;66064;50.226;14.344;2023-03-05T07:19:43;13.82;;;13.13;;
77111;SDS011;66064;50.226;14.344;2023-03-05T07:22:09;12.60;;;11.77;;
77111;SDS011;66064;50.226;14.344;2023-03-05T07:24:35;9.75;;;9.18;;
77111;SDS011;66064;50.226;14.344;2023-03-05T07:27:01;12.00;;;11.35;;
77111;SDS011;66064;50.226;14.344;2023-03-05T07:29:27;9.02;;;8.40;;
77111;SDS011;66064;50.226;14.344;2023-03-05T07:31:53;14.60;;;13.60;;
77111;SDS011;66064;50.226;14.344;2023-03-05T07:34:20;10.93;;;10.25;;
77111;SDS011;66064;50.226;14.344;2023-03-05T07:36:52;9.02;;;8.38;;
77111;SDS011;66064;50.226;14.344;2023-03-05T07:39:18;9.82;;;9.23;;
77111;SDS011;66064;50.226;14.344;2023-03-05T07:41:45;8.55;;;8.07;;
77111;SDS011;66064;50.226;14.344;2023-03-05T07:44:12;10.00;;;9.48;;
77111;SDS011;66064;50.226;14.344;2023-03-05T07:46:37;9.93;;;8.32;;
77111;SDS011;66064;50.226;14.344;2023-03-05T07:49:03;9.75;;;9.07;;
77111;SDS011;66064;50.226;14.344;2023-03-05T07:51:29;11.32;;;10.48;;
77111;SDS011;66064;50.226;14.344;2023-03-05T07:53:56;9.32;;;8.73;;
77111;SDS011;66064;50.226;14.344;2023-03-05T07:56:26;9.05;;;8.35;;
77111;SDS011;66064;50.226;14.344;2023-03-05T07:59:00;11.48;;;10.77;;
77111;SDS011;66064;50.226;14.344;2023-03-05T08:01:31;8.70;;;8.10;;
77111;SDS011;66064;50.226;14.344;2023-03-05T08:03:58;7.90;;;7.30;;
77111;SDS011;66064;50.226;14.344;2023-03-05T08:06:24;8.43;;;7.90;;
77111;SDS011;66064;50.226;14.344;2023-03-05T08:08:50;7.78;;;7.38;;
77111;SDS011;66064;50.226;14.344;2023-03-05T08:11:15;11.00;;;10.02;;
77111;SDS011;66064;50.226;14.344;2023-03-05T08:13:42;8.23;;;7.72;;
77111;SDS011;66064;50.226;14.344;2023-03-05T08:16:10;6.95;;;6.53;;
77111;SDS011;66064;50.226;14.344;2023-03-05T08:21:04;7.07;;;6.68;;
77111;SDS011;66064;50.226;14.344;2023-03-05T08:23:30;7.70;;;7.22;;
77111;SDS011;66064;50.226;14.344;2023-03-05T08:25:58;9.48;;;9.02;;
77111;SDS011;66064;50.226;14.344;2023-03-05T08:28:25;7.75;;;6.57;;
77111;SDS011;66064;50.226;14.344;2023-03-05T08:30:50;8.05;;;7.45;;
77111;SDS011;66064;50.226;14.344;2023-03-05T08:33:16;6.82;;;6.32;;
77111;SDS011;66064;50.226;14.344;2023-03-05T08:35:42;7.35;;;6.72;;
77111;SDS011;66064;50.226;14.344;2023-03-05T08:38:09;6.15;;;5.85;;
77111;SDS011;66064;50.226;14.344;2023-03-05T08:40:35;7.10;;;6.70;;
77111;SDS011;66064;50.226;14.344;2023-03-05T08:43:01;6.72;;;6.22;;
77111;SDS011;66064;50.226;14.344;2023-03-05T08:45:27;7.82;;;7.43;;
77111;SDS011;66064;50.226;14.344;2023-03-05T08:47:53;7.53;;;7.20;;
77111;SDS011;66064;50.226;14.344;2023-03-05T08:50:21;7.80;;;7.20;;
77111;SDS011;66064;50.226;14.344;2023-03-05T08:52:51;6.40;;;6.00;;
77111;SDS011;66064;50.226;14.344;2023-03-05T08:55:16;6.65;;;6.32;;
77111;SDS011;66064;50.226;14.344;2023-03-05T08:57:42;8.73;;;8.27;;
77111;SDS011;66064;50.226;14.344;2023-03-05T09:00:08;6.78;;;6.18;;
77111;SDS011;66064;50.226;14.344;2023-03-05T09:02:37;7.13;;;6.47;;
77111;SDS011;66064;50.226;14.344;2023-03-05T09:05:02;8.57;;;7.88;;
77111;SDS011;66064;50.226;14.344;2023-03-05T09:07:29;7.18;;;6.78;;
77111;SDS011;66064;50.226;14.344;2023-03-05T09:09:54;6.32;;;5.93;;
77111;SDS011;66064;50.226;14.344;2023-03-05T09:12:20;7.47;;;6.97;;
77111;SDS011;66064;50.226;14.344;2023-03-05T09:14:46;5.70;;;5.30;;
77111;SDS011;66064;50.226;14.344;2023-03-05T09:17:12;5.55;;;5.15;;
77111;SDS011;66064;50.226;14.344;2023-03-05T09:19:38;5.82;;;5.43;;
77111;SDS011;66064;50.226;14.344;2023-03-05T09:22:04;5.35;;;4.95;;
77111;SDS011;66064;50.226;14.344;2023-03-05T09:24:30;4.50;;;4.20;;
77111;SDS011;66064;50.226;14.344;2023-03-05T09:26:57;5.93;;;5.53;;
77111;SDS011;66064;50.226;14.344;2023-03-05T09:29:24;5.70;;;5.30;;
77111;SDS011;66064;50.226;14.344;2023-03-05T09:31:51;6.28;;;5.82;;
77111;SDS011;66064;50.226;14.344;2023-03-05T09:36:46;6.90;;;6.50;;
77111;SDS011;66064;50.226;14.344;2023-03-05T09:39:12;6.88;;;6.43;;
77111;SDS011;66064;50.226;14.344;2023-03-05T09:41:55;7.72;;;7.30;;
77111;SDS011;66064;50.226;14.344;2023-03-05T09:52:58;8.02;;;7.57;;
77111;SDS011;66064;50.226;14.344;2023-03-05T09:55:41;13.32;;;12.57;;
77111;SDS011;66064;50.226;14.344;2023-03-05T09:58:14;7.10;;;6.68;;
77111;SDS011;66064;50.226;14.344;2023-03-05T10:00:45;8.75;;;8.27;;
77111;SDS011;66064;50.226;14.344;2023-03-05T10:06:08;5.45;;;5.10;;
77111;SDS011;66064;50.226;14.344;2023-03-05T10:14:32;8.15;;;7.70;;
77111;SDS011;66064;50.226;14.344;2023-03-05T10:19:56;13.55;;;12.95;;
77111;SDS011;66064;50.226;14.344;2023-03-05T10:25:25;6.82;;;6.28;;
77111;SDS011;66064;50.226;14.344;2023-03-05T10:28:17;5.47;;;5.18;;
77111;SDS011;66064;50.226;14.344;2023-03-05T10:30:56;8.50;;;8.00;;
77111;SDS011;66064;50.226;14.344;2023-03-05T10:36:25;6.93;;;6.53;;
77111;SDS011;66064;50.226;14.344;2023-03-05T10:46:56;6.40;;;5.90;;
77111;SDS011;66064;50.226;14.344;2023-03-05T10:49:29;7.55;;;7.15;;
77111;SDS011;66064;50.226;14.344;2023-03-05T10:55:15;6.72;;;6.03;;
77111;SDS011;66064;50.226;14.344;2023-03-05T10:57:44;7.05;;;6.65;;
77111;SDS011;66064;50.226;14.344;2023-03-05T11:00:25;8.63;;;8.23;;
77111;SDS011;66064;50.226;14.344;2023-03-05T11:03:03;6.18;;;5.78;;
77111;SDS011;66064;50.226;14.344;2023-03-05T11:13:40;7.38;;;6.97;;
77111;SDS011;66064;50.226;14.344;2023-03-05T11:16:18;6.68;;;6.28;;
77111;SDS011;66064;50.226;14.344;2023-03-05T11:19:09;6.70;;;6.30;;
77111;SDS011;66064;50.226;14.344;2023-03-05T11:21:43;7.63;;;7.20;;
77111;SDS011;66064;50.226;14.344;2023-03-05T11:24:11;7.50;;;7.10;;
77111;SDS011;66064;50.226;14.344;2023-03-05T11:26:50;6.97;;;6.60;;
77111;SDS011;66064;50.226;14.344;2023-03-05T11:29:21;8.55;;;8.15;;
77111;SDS011;66064;50.226;14.344;2023-03-05T11:31:50;7.53;;;7.13;;
77111;SDS011;66064;50.226;14.344;2023-03-05T11:37:04;8.68;;;8.20;;
77111;SDS011;66064;50.226;14.344;2023-03-05T11:39:31;9.10;;;8.60;;
77111;SDS011;66064;50.226;14.344;2023-03-05T11:42:05;9.73;;;9.23;;
77111;SDS011;66064;50.226;14.344;2023-03-05T11:47:46;12.05;;;11.45;;
77111;SDS011;66064;50.226;14.344;2023-03-05T11:52:43;7.15;;;6.68;;
77111;SDS011;66064;50.226;14.344;2023-03-05T11:55:19;7.00;;;6.60;;
77111;SDS011;66064;50.226;14.344;2023-03-05T11:57:52;8.18;;;7.78;;
77111;SDS011;66064;50.226;14.344;2023-03-05T12:00:42;13.77;;;13.18;;
77111;SDS011;66064;50.226;14.344;2023-03-05T12:03:10;7.57;;;7.07;;
77111;SDS011;66064;50.226;14.344;2023-03-05T12:05:41;7.28;;;6.78;;
77111;SDS011;66064;50.226;14.344;2023-03-05T12:08:11;8.57;;;8.07;;
77111;SDS011;66064;50.226;14.344;2023-03-05T12:10:41;8.70;;;8.20;;
77111;SDS011;66064;50.226;14.344;2023-03-05T12:16:13;9.93;;;9.35;;
77111;SDS011;66064;50.226;14.344;2023-03-05T12:21:31;9.30;;;8.45;;
77111;SDS011;66064;50.226;14.344;2023-03-05T12:24:02;10.25;;;9.45;;
77111;SDS011;66064;50.226;14.344;2023-03-05T12:32:03;15.68;;;14.77;;
77111;SDS011;66064;50.226;14.344;2023-03-05T12:42:43;12.25;;;10.93;;
77111;SDS011;66064;50.226;14.344;2023-03-05T12:58:12;8.45;;;7.85;;
77111;SDS011;66064;50.226;14.344;2023-03-05T13:00:40;9.23;;;8.73;;
77111;SDS011;66064;50.226;14.344;2023-03-05T13:03:10;9.00;;;8.50;;
77111;SDS011;66064;50.226;14.344;2023-03-05T13:05:52;7.05;;;6.55;;
77111;SDS011;66064;50.226;14.344;2023-03-05T13:08:23;10.00;;;9.43;;
77111;SDS011;66064;50.226;14.344;2023-03-05T13:11:01;8.23;;;7.72;;
77111;SDS011;66064;50.226;14.344;2023-03-05T13:13:34;11.27;;;10.55;;
77111;SDS011;66064;50.226;14.344;2023-03-05T13:16:03;9.02;;;8.52;;
77111;SDS011;66064;50.226;14.344;2023-03-05T13:18:30;9.30;;;8.70;;
77111;SDS011;66064;50.226;14.344;2023-03-05T13:23:29;11.52;;;11.00;;
77111;SDS011;66064;50.226;14.344;2023-03-05T13:28:22;9.48;;;8.77;;
77111;SDS011;66064;50.226;14.344;2023-03-05T13:30:50;6.78;;;6.32;;
77111;SDS011;66064;50.226;14.344;2023-03-05T13:33:18;14.57;;;13.82;;
77111;SDS011;66064;50.226;14.344;2023-03-05T13:35:52;14.52;;;13.68;;
77111;SDS011;66064;50.226;14.344;2023-03-05T13:43:42;14.40;;;13.70;;
77111;SDS011;66064;50.226;14.344;2023-03-05T13:46:21;8.73;;;8.23;;
77111;SDS011;66064;50.226;14.344;2023-03-05T13:48:49;8.85;;;8.18;;
77111;SDS011;66064;50.226;14.344;2023-03-05T13:51:15;8.45;;;7.82;;
77111;SDS011;66064;50.226;14.344;2023-03-05T13:53:41;10.68;;;10.10;;
77111;SDS011;66064;50.226;14.344;2023-03-05T13:56:11;10.18;;;9.57;;
77111;SDS011;66064;50.226;14.344;2023-03-05T13:58:46;8.82;;;8.13;;
77111;SDS011;66064;50.226;14.344;2023-03-05T14:04:57;9.73;;;8.95;;
77111;SDS011;66064;50.226;14.344;2023-03-05T14:07:05;8.63;;;8.13;;
77111;SDS011;66064;50.226;14.344;2023-03-05T14:09:48;9.85;;;9.15;;
77111;SDS011;66064;50.226;14.344;2023-03-05T14:12:24;10.95;;;10.35;;
77111;SDS011;66064;50.226;14.344;2023-03-05T14:15:02;8.07;;;7.57;;
77111;SDS011;66064;50.226;14.344;2023-03-05T14:17:44;9.60;;;9.00;;
77111;SDS011;66064;50.226;14.344;2023-03-05T14:22:37;9.93;;;9.43;;
77111;SDS011;66064;50.226;14.344;2023-03-05T14:25:05;8.43;;;8.00;;
77111;SDS011;66064;50.226;14.344;2023-03-05T14:27:50;8.50;;;7.95;;
77111;SDS011;66064;50.226;14.344;2023-03-05T14:30:16;7.53;;;7.00;;
77111;SDS011;66064;50.226;14.344;2023-03-05T14:32:46;8.95;;;8.48;;
77111;SDS011;66064;50.226;14.344;2023-03-05T14:35:24;8.93;;;8.35;;
77111;SDS011;66064;50.226;14.344;2023-03-05T14:37:52;6.95;;;6.25;;
77111;SDS011;66064;50.226;14.344;2023-03-05T14:40:22;9.32;;;8.82;;
77111;SDS011;66064;50.226;14.344;2023-03-05T14:42:54;7.75;;;7.15;;
77111;SDS011;66064;50.226;14.344;2023-03-05T14:45:25;9.35;;;8.85;;
77111;SDS011;66064;50.226;14.344;2023-03-05T14:47:59;10.60;;;10.00;;
77111;SDS011;66064;50.226;14.344;2023-03-05T14:50:29;9.07;;;8.30;;
77111;SDS011;66064;50.226;14.344;2023-03-05T14:53:08;8.70;;;8.20;;
77111;SDS011;66064;50.226;14.344;2023-03-05T14:55:38;8.38;;;7.82;;
77111;SDS011;66064;50.226;14.344;2023-03-05T14:58:11;15.52;;;14.73;;
77111;SDS011;66064;50.226;14.344;2023-03-05T15:00:39;9.68;;;9.18;;
77111;SDS011;66064;50.226;14.344;2023-03-05T15:03:09;8.70;;;8.00;;
77111;SDS011;66064;50.226;14.344;2023-03-05T15:05:35;9.82;;;9.13;;
77111;SDS011;66064;50.226;14.344;2023-03-05T15:08:02;9.40;;;8.55;;
77111;SDS011;66064;50.226;14.344;2023-03-05T15:10:29;9.45;;;8.95;;
77111;SDS011;66064;50.226;14.344;2023-03-05T15:12:55;9.20;;;8.70;;
77111;SDS011;66064;50.226;14.344;2023-03-05T15:15:21;8.95;;;8.50;;
77111;SDS011;66064;50.226;14.344;2023-03-05T15:17:49;10.30;;;9.48;;
77111;SDS011;66064;50.226;14.344;2023-03-05T15:22:25;17.13;;;16.00;;
77111;SDS011;66064;50.226;14.344;2023-03-05T15:24:51;17.48;;;16.67;;
77111;SDS011;66064;50.226;14.344;2023-03-05T15:27:17;19.35;;;18.10;;
77111;SDS011;66064;50.226;14.344;2023-03-05T15:29:43;8.13;;;7.60;;
77111;SDS011;66064;50.226;14.344;2023-03-05T15:32:09;16.10;;;15.30;;
77111;SDS011;66064;50.226;14.344;2023-03-05T15:34:35;19.13;;;17.80;;
77111;SDS011;66064;50.226;14.344;2023-03-05T15:37:02;15.40;;;14.55;;
77111;SDS011;66064;50.226;14.344;2023-03-05T15:39:28;18.70;;;17.88;;
77111;SDS011;66064;50.226;14.344;2023-03-05T15:41:54;17.05;;;16.05;;
77111;SDS011;66064;50.226;14.344;2023-03-05T15:44:21;7.75;;;7.25;;
77111;SDS011;66064;50.226;14.344;2023-03-05T15:46:47;18.23;;;17.40;;
77111;SDS011;66064;50.226;14.344;2023-03-05T15:49:13;17.08;;;16.17;;
77111;SDS011;66064;50.226;14.344;2023-03-05T15:51:39;15.93;;;15.20;;
77111;SDS011;66064;50.226;14.344;2023-03-05T15:54:06;12.50;;;11.35;;
77111;SDS011;66064;50.226;14.344;2023-03-05T15:56:31;17.65;;;16.40;;
77111;SDS011;66064;50.226;14.344;2023-03-05T15:58:58;11.30;;;10.60;;
77111;SDS011;66064;50.226;14.344;2023-03-05T16:01:24;17.63;;;16.88;;
77111;SDS011;66064;50.226;14.344;2023-03-05T16:03:50;16.85;;;15.75;;
77111;SDS011;66064;50.226;14.344;2023-03-05T16:06:16;20.27;;;19.27;;
77111;SDS011;66064;50.226;14.344;2023-03-05T16:08:47;11.68;;;10.57;;
77111;SDS011;66064;50.226;14.344;2023-03-05T16:11:15;18.17;;;17.08;;
77111;SDS011;66064;50.226;14.344;2023-03-05T16:13:43;18.30;;;17.08;;
77111;SDS011;66064;50.226;14.344;2023-03-05T16:16:09;18.27;;;17.40;;
77111;SDS011;66064;50.226;14.344;2023-03-05T16:18:37;23.30;;;22.10;;